Millboro, North Carolina
Current Conditions -  °F | °C
As of 10:50 AM on Wednesday 28 Jan 2015 (Local Time) from KHBI Reporting Station
Clear Clear  
Wind Chill: 28°   Ceiling: Unl
Heat Index: 34°   Visibility: 10mi
Dew Point: 16°   Wind: 7mph
Humidity: 49%   Direction: 350°N
Pressure: 30.29"   Gusts: NA
Location:  35.8068°N, 79.7101°W
Report Text: KHBI 281550Z AUTO 35006KT 10SM CLR 01/M09 A3029 RMK AO2 T00101087
Loading
Personal Weather Stations






























Interactive Weather Map New forecast layout! Learn more

10-Day Weather Forecast

Advertisements
Track Severe Weather on mobile